createdAt,value
2018-09-20T00:01:26.340Z,101143.19
2018-09-20T00:03:54.749Z,101144.89
2018-09-20T00:06:23.122Z,101141.05
2018-09-20T00:08:51.532Z,101135.88
2018-09-20T00:11:19.954Z,101138.84
2018-09-20T00:13:48.333Z,101131.50
2018-09-20T00:16:16.781Z,101128.08
2018-09-20T00:18:45.244Z,101130.73
2018-09-20T00:21:13.681Z,101128.11
2018-09-20T00:23:42.099Z,101121.22
2018-09-20T00:26:10.561Z,101126.85
2018-09-20T00:28:38.924Z,101130.28
2018-09-20T00:31:07.382Z,101126.49
2018-09-20T00:33:35.770Z,101123.45
2018-09-20T00:36:04.192Z,101114.41
2018-09-20T00:38:32.674Z,101117.44
2018-09-20T00:41:01.075Z,101117.89
2018-09-20T00:43:29.461Z,101114.90
2018-09-20T00:45:57.923Z,101118.41
2018-09-20T00:48:26.301Z,101115.42
2018-09-20T00:50:54.720Z,101109.38
2018-09-20T00:53:23.137Z,101102.10
2018-09-20T00:55:51.560Z,101099.17
2018-09-20T00:58:19.981Z,101103.96
2018-09-20T01:00:48.392Z,101110.39
2018-09-20T01:03:16.799Z,101116.02
2018-09-20T01:05:45.176Z,101116.88
2018-09-20T01:08:13.601Z,101119.05
2018-09-20T01:10:42.032Z,101124.23
2018-09-20T01:13:10.404Z,101124.22
2018-09-20T01:15:38.807Z,101123.39
2018-09-20T01:18:07.293Z,101121.68
2018-09-20T01:20:35.708Z,101120.39
2018-09-20T01:23:04.135Z,101119.08
2018-09-20T01:25:32.769Z,101119.06
2018-09-20T01:28:01.189Z,101120.84
2018-09-20T01:30:29.601Z,101123.46
2018-09-20T01:32:58.561Z,101125.17
2018-09-20T01:35:26.977Z,101126.96
2018-09-20T01:37:55.391Z,101129.59
2018-09-20T01:40:23.800Z,101129.59
2018-09-20T01:42:52.212Z,101132.59
2018-09-20T01:45:20.616Z,101132.59
2018-09-20T01:47:49.004Z,101126.98
2018-09-20T01:50:17.428Z,101127.34
2018-09-20T01:52:45.978Z,101126.09
2018-09-20T01:55:14.351Z,101124.00
2018-09-20T01:57:42.792Z,101120.54
2018-09-20T02:00:11.196Z,101125.70
2018-09-20T02:02:39.598Z,101124.42
2018-09-20T02:05:08.135Z,101127.88
2018-09-20T02:07:36.543Z,101127.47
2018-09-20T02:10:05.048Z,101121.89
2018-09-20T02:12:33.467Z,101127.03
2018-09-20T02:15:01.830Z,101126.58
2018-09-20T02:17:30.581Z,101128.32
2018-09-20T02:19:58.981Z,101130.09
2018-09-20T02:22:27.424Z,101126.64
2018-09-20T02:24:55.881Z,101131.80
2018-09-20T02:27:25.225Z,101135.69
2018-09-20T02:29:53.686Z,101134.38
2018-09-20T02:32:22.085Z,101129.69
2018-09-20T02:34:50.491Z,101130.55
2018-09-20T02:37:18.965Z,101143.89
2018-09-20T02:39:47.367Z,101143.89
2018-09-20T02:42:15.743Z,101141.70
2018-09-20T02:44:44.141Z,101136.55
2018-09-20T02:47:12.593Z,101119.37
2018-09-20T02:49:41.036Z,101140.02
2018-09-20T02:52:09.579Z,101143.91
2018-09-20T02:54:37.993Z,101137.02
2018-09-20T02:57:06.417Z,101137.03
2018-09-20T02:59:34.828Z,101140.05
2018-09-20T03:02:03.277Z,101132.70
2018-09-20T03:04:31.700Z,101135.33
2018-09-20T03:07:00.084Z,101120.25
2018-09-20T03:09:28.496Z,101126.25
2018-09-20T03:11:56.916Z,101122.39
2018-09-20T03:14:25.319Z,101125.84
2018-09-20T03:16:53.741Z,101122.84
2018-09-20T03:19:22.122Z,101115.09
2018-09-20T03:21:50.592Z,101118.15
2018-09-20T03:24:18.994Z,101123.33
2018-09-20T03:26:47.469Z,101126.74
2018-09-20T03:29:15.904Z,101126.30
2018-09-20T03:31:44.338Z,101127.61
2018-09-20T03:34:12.778Z,101131.05
2018-09-20T03:36:41.749Z,101131.48
2018-09-20T03:39:11.249Z,101126.31
2018-09-20T03:41:40.033Z,101125.01
2018-09-20T03:44:08.486Z,101132.31
2018-09-20T03:46:36.865Z,101119.84
2018-09-20T03:49:05.450Z,101125.44
2018-09-20T03:51:33.911Z,101124.17
2018-09-20T03:54:02.425Z,101124.61
2018-09-20T03:56:30.849Z,101122.88
2018-09-20T03:58:59.272Z,101120.75
2018-09-20T04:01:27.675Z,101122.03
2018-09-20T04:03:56.129Z,101122.03
2018-09-20T04:06:24.556Z,101119.86
2018-09-20T04:08:53.065Z,101117.27
2018-09-20T04:11:21.489Z,101111.69
2018-09-20T04:13:49.891Z,101113.85
2018-09-20T04:16:18.291Z,101109.97
2018-09-20T04:18:46.994Z,101114.69
2018-09-20T04:21:19.814Z,101116.40
2018-09-20T04:23:48.209Z,101112.10
2018-09-20T04:26:16.625Z,101115.99
2018-09-20T04:28:45.057Z,101110.81
2018-09-20T04:31:13.476Z,101113.41
2018-09-20T04:33:41.880Z,101116.41
2018-09-20T04:36:10.257Z,101116.84
2018-09-20T04:38:38.661Z,101122.87
2018-09-20T04:41:07.060Z,101124.17
2018-09-20T04:43:36.126Z,101126.77
2018-09-20T04:46:04.509Z,101130.62
2018-09-20T04:48:33.051Z,101130.20
2018-09-20T04:51:01.464Z,101133.64
2018-09-20T04:53:29.865Z,101128.47
2018-09-20T04:55:58.269Z,101133.64
2018-09-20T04:58:26.658Z,101128.05
2018-09-20T05:00:55.127Z,101134.50
2018-09-20T05:03:23.657Z,101126.33
2018-09-20T05:05:52.104Z,101130.19
2018-09-20T05:08:21.207Z,101130.16
2018-09-20T05:10:49.638Z,101119.81
2018-09-20T05:13:18.397Z,101123.67
2018-09-20T05:15:47.810Z,101121.97
2018-09-20T05:18:16.263Z,101121.95
2018-09-20T05:20:44.732Z,101120.65
2018-09-20T05:23:13.348Z,101120.64
2018-09-20T05:25:41.825Z,101119.34
2018-09-20T05:28:10.913Z,101118.05
2018-09-20T05:30:39.391Z,101120.19
2018-09-20T05:33:07.852Z,101116.77
2018-09-20T05:35:36.590Z,101115.94
2018-09-20T05:38:04.964Z,101112.05
2018-09-20T05:40:33.382Z,101112.04
2018-09-20T05:43:01.784Z,101114.61
2018-09-20T05:45:30.193Z,101108.15
2018-09-20T05:47:58.623Z,101112.45
2018-09-20T05:50:27.049Z,101112.47
2018-09-20T05:52:55.682Z,101114.18
2018-09-20T05:55:24.426Z,101120.19
2018-09-20T05:57:52.820Z,101122.77
2018-09-20T06:00:21.356Z,101120.63
2018-09-20T06:02:50.272Z,101121.05
2018-09-20T06:05:18.716Z,101121.47
2018-09-20T06:07:47.096Z,101124.90
2018-09-20T06:10:15.536Z,101116.27
2018-09-20T06:12:43.979Z,101115.41
2018-09-20T06:15:12.390Z,101112.39
2018-09-20T06:17:40.796Z,101114.10
2018-09-20T06:20:09.197Z,101115.81
2018-09-20T06:22:37.600Z,101113.23
2018-09-20T06:25:06.230Z,101114.50
2018-09-20T06:27:34.702Z,101120.55
2018-09-20T06:30:03.444Z,101119.66
2018-09-20T06:32:31.892Z,101124.81
2018-09-20T06:35:00.355Z,101129.08
2018-09-20T06:37:28.739Z,101132.05
2018-09-20T06:39:57.149Z,101135.41
2018-09-20T06:42:25.585Z,101132.37
2018-09-20T06:44:54.032Z,101126.70
2018-09-20T06:47:22.444Z,101130.98
2018-09-20T06:49:51.744Z,101127.94
2018-09-20T06:52:20.156Z,101118.86
2018-09-20T06:54:48.572Z,101119.70
2018-09-20T06:57:17.009Z,101113.66
2018-09-20T06:59:45.707Z,101118.37
2018-09-20T07:02:14.138Z,101109.29
2018-09-20T07:04:42.540Z,101113.17
2018-09-20T07:07:10.990Z,101111.87
2018-09-20T07:09:39.437Z,101122.19
2018-09-20T07:12:07.805Z,101115.24
2018-09-20T07:14:36.220Z,101116.95
2018-09-20T07:17:04.776Z,101115.63
2018-09-20T07:19:33.214Z,101114.75
2018-09-20T07:22:01.634Z,101112.63
2018-09-20T07:24:30.039Z,101111.75
2018-09-20T07:26:58.498Z,101108.25
2018-09-20T07:29:26.899Z,101106.94
2018-09-20T07:31:55.340Z,101112.06
2018-09-20T07:34:23.733Z,101108.58
2018-09-20T07:36:52.833Z,101107.27
2018-09-20T07:39:21.803Z,101110.67
2018-09-20T07:41:50.183Z,101111.50
2018-09-20T07:44:18.629Z,101114.91
2018-09-20T07:46:47.070Z,101115.26
2018-09-20T07:49:15.472Z,101110.84
2018-09-20T07:51:43.947Z,101116.33
2018-09-20T07:54:12.341Z,101123.12
2018-09-20T07:56:40.824Z,101116.08
2018-09-20T07:59:09.392Z,101121.54
2018-09-20T08:01:37.863Z,101117.57
2018-09-20T08:04:06.252Z,101120.08
2018-09-20T08:06:34.649Z,101119.20
2018-09-20T08:09:03.210Z,101124.31
2018-09-20T08:11:31.643Z,101124.27
2018-09-20T08:14:01.472Z,101122.52
2018-09-20T08:16:29.872Z,101128.48
2018-09-20T08:18:58.396Z,101128.45
2018-09-20T08:21:26.838Z,101120.63
2018-09-20T08:23:55.310Z,101125.79
2018-09-20T08:26:23.819Z,101123.66
2018-09-20T08:28:52.488Z,101123.30
2018-09-20T08:31:20.886Z,101120.36
2018-09-20T08:33:49.333Z,101123.39
2018-09-20T08:36:17.752Z,101118.67
2018-09-20T08:38:46.785Z,101115.16
2018-09-20T08:41:15.779Z,101117.97
2018-09-20T08:43:44.300Z,101122.61
2018-09-20T08:46:13.744Z,101117.72
2018-09-20T08:48:42.112Z,101120.10
2018-09-20T08:51:10.620Z,101120.33
2018-09-20T08:53:39.011Z,101121.81
2018-09-20T08:56:07.595Z,101114.03
2018-09-20T08:58:35.977Z,101110.63
2018-09-20T09:01:05.418Z,101112.28
2018-09-20T09:03:33.813Z,101109.75
2018-09-20T09:06:02.344Z,101114.17
2018-09-20T09:08:31.221Z,101107.68
2018-09-20T09:11:00.018Z,101108.87
2018-09-20T09:13:28.491Z,101105.72
2018-09-20T09:15:56.941Z,101099.52
2018-09-20T09:18:25.506Z,101100.48
2018-09-20T09:20:53.931Z,101102.98
2018-09-20T09:23:22.729Z,101091.30
2018-09-20T09:25:51.141Z,101094.75
2018-09-20T09:28:20.229Z,101084.64
2018-09-20T09:30:48.668Z,101082.48
2018-09-20T09:33:17.137Z,101096.09
2018-09-20T09:35:45.572Z,101082.79
2018-09-20T09:38:14.976Z,101077.84
2018-09-20T09:40:43.458Z,101073.13
2018-09-20T09:43:12.208Z,101075.21
2018-09-20T09:45:40.584Z,101071.56
2018-09-20T09:48:09.014Z,101078.95
2018-09-20T09:50:37.675Z,101068.19
2018-09-20T09:53:06.288Z,101071.60
2018-09-20T09:55:34.745Z,101069.77
2018-09-20T09:58:03.190Z,101064.61
2018-09-20T10:00:34.001Z,101068.92
2018-09-20T10:03:02.423Z,101071.23
2018-09-20T10:05:30.816Z,101063.00
2018-09-20T10:07:59.253Z,101061.03
2018-09-20T10:10:28.156Z,101062.23
2018-09-20T10:12:57.168Z,101060.80
2018-09-20T10:15:25.583Z,101062.99
2018-09-20T10:17:53.965Z,101051.97
2018-09-20T10:20:22.381Z,101043.88
2018-09-20T10:22:50.824Z,101051.83
2018-09-20T10:25:19.247Z,101055.47
2018-09-20T10:27:47.748Z,101043.16
2018-09-20T10:30:16.156Z,101048.86
2018-09-20T10:32:44.561Z,101048.28
2018-09-20T10:35:13.122Z,101033.38
2018-09-20T10:37:41.622Z,101031.45
2018-09-20T10:40:10.057Z,101023.00
2018-09-20T10:42:38.456Z,101017.81
2018-09-20T10:45:06.930Z,101012.67
2018-09-20T10:47:35.322Z,101010.18
2018-09-20T10:50:03.740Z,101009.69
2018-09-20T10:52:33.017Z,101021.66
2018-09-20T10:55:01.584Z,101018.59
2018-09-20T10:57:30.738Z,101018.17
2018-09-20T10:59:59.124Z,101006.06
2018-09-20T11:02:27.570Z,101011.53
2018-09-20T11:04:55.993Z,101004.91
2018-09-20T11:07:24.572Z,101007.95
2018-09-20T11:09:53.067Z,101007.55
2018-09-20T11:12:21.573Z,101005.79
2018-09-20T11:14:50.001Z,100992.53
2018-09-20T11:17:19.154Z,100988.27
2018-09-20T11:19:47.557Z,100982.45
2018-09-20T11:22:16.029Z,100981.05
2018-09-20T11:24:45.116Z,100987.41
2018-09-20T11:27:13.541Z,100985.16
2018-09-20T11:29:41.978Z,100981.11
2018-09-20T11:32:10.438Z,100982.92
2018-09-20T11:34:38.913Z,100986.76
2018-09-20T11:37:07.361Z,100980.96
2018-09-20T11:39:36.160Z,100991.69
2018-09-20T11:42:05.644Z,100984.88
2018-09-20T11:44:34.144Z,100984.30
2018-09-20T11:47:03.090Z,100972.92
2018-09-20T11:49:31.629Z,100981.20
2018-09-20T11:52:00.137Z,100979.44
2018-09-20T11:54:28.628Z,100985.78
2018-09-20T11:56:57.102Z,100979.44
2018-09-20T11:59:25.970Z,100975.77
2018-09-20T12:01:54.390Z,100981.41
2018-09-20T12:04:23.987Z,100978.16
2018-09-20T12:06:52.445Z,100979.86
2018-09-20T12:09:20.839Z,100976.63
2018-09-20T12:11:49.273Z,100972.09
2018-09-20T12:14:17.707Z,100965.48
2018-09-20T12:16:46.260Z,100964.48
2018-09-20T12:19:14.765Z,100962.43
2018-09-20T12:21:43.185Z,100946.72
2018-09-20T12:24:11.621Z,100950.16
2018-09-20T12:26:40.064Z,100942.59
2018-09-20T12:29:08.492Z,100947.52
2018-09-20T12:31:36.906Z,100937.52
2018-09-20T12:34:05.448Z,100930.83
2018-09-20T12:36:33.895Z,100930.75
2018-09-20T12:39:02.449Z,100930.92
2018-09-20T12:41:30.970Z,100919.25
2018-09-20T12:43:59.432Z,100910.44
2018-09-20T12:46:27.833Z,100887.34
2018-09-20T12:48:56.302Z,100903.52
2018-09-20T12:51:25.569Z,100905.17
2018-09-20T12:53:54.016Z,100905.97
2018-09-20T12:56:23.667Z,100899.56
2018-09-20T12:58:52.441Z,100894.41
2018-09-20T13:01:22.289Z,100894.23
2018-09-20T13:03:51.835Z,100884.65
2018-09-20T13:06:20.311Z,100873.39
2018-09-20T13:08:48.762Z,100868.86
2018-09-20T13:11:18.516Z,100872.63
2018-09-20T13:13:47.053Z,100870.70
2018-09-20T13:16:15.498Z,100874.25
2018-09-20T13:18:44.863Z,100874.85
2018-09-20T13:21:13.331Z,100878.98
2018-09-20T13:23:41.744Z,100877.91
2018-09-20T13:26:10.345Z,100874.28
2018-09-20T13:28:38.896Z,100872.94
2018-09-20T13:31:07.304Z,100862.67
2018-09-20T13:33:37.511Z,100863.70
2018-09-20T13:36:06.076Z,100860.77
2018-09-20T13:38:34.558Z,100860.58
2018-09-20T13:41:04.009Z,100858.11
2018-09-20T13:43:32.454Z,100855.53
2018-09-20T13:46:01.010Z,100847.86
2018-09-20T13:48:29.936Z,100816.63
2018-09-20T13:50:58.376Z,100848.92
2018-09-20T13:53:26.926Z,100840.28
2018-09-20T13:55:55.381Z,100834.59
2018-09-20T13:58:23.832Z,100834.41
2018-09-20T14:00:52.365Z,100824.02
2018-09-20T14:03:21.674Z,100817.79
2018-09-20T14:05:50.466Z,100819.10
2018-09-20T14:08:19.299Z,100815.67
2018-09-20T14:10:48.513Z,100812.66
2018-09-20T14:13:17.009Z,100808.31
2018-09-20T14:15:45.462Z,100803.79
2018-09-20T14:18:13.980Z,100804.59
2018-09-20T14:20:42.901Z,100813.61
2018-09-20T14:23:11.353Z,100803.53
2018-09-20T14:25:39.748Z,100786.07
2018-09-20T14:28:08.185Z,100785.50
2018-09-20T14:30:36.664Z,100784.75
2018-09-20T14:33:05.158Z,100778.55
2018-09-20T14:35:33.614Z,100780.19
2018-09-20T14:38:02.149Z,100764.64
2018-09-20T14:40:30.562Z,100758.14
2018-09-20T14:42:58.973Z,100757.58
2018-09-20T14:45:27.401Z,100756.27
2018-09-20T14:47:55.806Z,100749.58
2018-09-20T14:50:24.456Z,100742.33
2018-09-20T14:52:52.887Z,100749.40
2018-09-20T14:55:21.497Z,100741.27
2018-09-20T14:57:49.972Z,100735.13
2018-09-20T15:00:19.299Z,100726.50
2018-09-20T15:02:47.956Z,100727.95
2018-09-20T15:05:16.386Z,100718.16
2018-09-20T15:07:44.781Z,100717.16
2018-09-20T15:10:13.244Z,100714.48
2018-09-20T15:12:41.655Z,100714.63
2018-09-20T15:15:10.134Z,100713.81
2018-09-20T15:17:38.556Z,100711.45
2018-09-20T15:20:07.059Z,100709.11
2018-09-20T15:22:35.455Z,100702.05
2018-09-20T15:25:03.960Z,100706.81
2018-09-20T15:27:32.365Z,100701.87
2018-09-20T15:30:00.969Z,100696.95
2018-09-20T15:32:29.996Z,100696.95
2018-09-20T15:34:58.398Z,100693.95
2018-09-20T15:37:26.831Z,100689.00
2018-09-20T15:39:55.301Z,100688.19
2018-09-20T15:42:23.760Z,100685.00
2018-09-20T15:44:52.201Z,100682.59
2018-09-20T15:47:20.673Z,100677.37
2018-09-20T15:49:49.106Z,100679.44
2018-09-20T15:52:19.711Z,100675.47
2018-09-20T15:54:49.409Z,100677.71
2018-09-20T15:57:18.057Z,100667.63
2018-09-20T15:59:47.089Z,100664.63
2018-09-20T16:02:15.504Z,100666.11
2018-09-20T16:04:43.973Z,100666.64
2018-09-20T16:07:12.452Z,100663.73
2018-09-20T16:09:41.872Z,100658.82
2018-09-20T16:12:10.430Z,100659.73
2018-09-20T16:14:39.591Z,100657.50
2018-09-20T16:17:08.005Z,100652.41
2018-09-20T16:19:36.435Z,100649.62
2018-09-20T16:22:04.871Z,100633.83
2018-09-20T16:24:33.383Z,100635.41
2018-09-20T16:27:01.812Z,100633.87
2018-09-20T16:30:08.508Z,100631.14
2018-09-20T16:33:14.431Z,100626.25
2018-09-20T16:35:49.756Z,100616.10
2018-09-20T16:39:37.069Z,100616.89
2018-09-20T16:42:06.800Z,100611.17
2018-09-20T16:44:36.027Z,100607.06
2018-09-20T16:47:45.002Z,100601.22
2018-09-20T16:50:13.487Z,100600.57
2018-09-20T16:52:41.958Z,100591.66
2018-09-20T16:55:10.417Z,100594.82
2018-09-20T16:57:38.898Z,100593.70
2018-09-20T17:00:09.429Z,100598.66
2018-09-20T17:02:37.882Z,100597.55
2018-09-20T17:05:06.361Z,100592.84
2018-09-20T17:07:34.750Z,100590.78
2018-09-20T17:10:03.225Z,100597.37
2018-09-20T17:12:31.639Z,100590.64
2018-09-20T17:15:00.358Z,100587.38
2018-09-20T17:17:28.712Z,100584.06
2018-09-20T17:19:57.198Z,100586.80
2018-09-20T17:22:25.633Z,100586.52
2018-09-20T17:24:54.225Z,100576.73
2018-09-20T17:27:22.706Z,100578.12
2018-09-20T17:29:51.153Z,100578.77
2018-09-20T17:32:19.633Z,100577.98
2018-09-20T17:34:48.352Z,100575.55
2018-09-20T17:37:17.643Z,100576.16
2018-09-20T17:39:47.307Z,100575.42
2018-09-20T17:42:16.174Z,100577.33
2018-09-20T17:44:44.566Z,100576.14
2018-09-20T17:47:13.124Z,100571.53
2018-09-20T17:49:41.578Z,100567.45
2018-09-20T17:52:10.380Z,100564.52
2018-09-20T17:54:39.199Z,100562.42
2018-09-20T17:57:08.106Z,100558.58
2018-09-20T17:59:36.567Z,100558.27
2018-09-20T18:02:05.024Z,100559.68
2018-09-20T18:04:33.486Z,100559.73
2018-09-20T18:07:01.989Z,100559.34
2018-09-20T18:09:30.438Z,100561.09
2018-09-20T18:11:59.617Z,100561.16
2018-09-20T18:14:28.129Z,100559.06
2018-09-20T18:16:56.686Z,100553.52
2018-09-20T18:19:25.129Z,100553.13
2018-09-20T18:21:53.610Z,100555.07
2018-09-20T18:24:22.330Z,100555.64
2018-09-20T18:26:50.774Z,100556.14
2018-09-20T18:29:19.765Z,100552.35
2018-09-20T18:31:48.201Z,100548.56
2018-09-20T18:34:16.683Z,100550.39
2018-09-20T18:36:45.057Z,100545.36
2018-09-20T18:39:14.558Z,100547.16
2018-09-20T18:41:44.832Z,100551.58
2018-09-20T18:44:13.331Z,100548.18
2018-09-20T18:46:41.806Z,100546.48
2018-09-20T18:49:10.309Z,100546.56
2018-09-20T18:51:38.767Z,100542.77
2018-09-20T18:54:07.253Z,100547.68
2018-09-20T18:56:35.787Z,100540.97
2018-09-20T18:59:04.232Z,100541.55
2018-09-20T19:01:32.702Z,100551.05
2018-09-20T19:04:01.180Z,100550.20
2018-09-20T19:06:29.619Z,100547.66
2018-09-20T19:08:58.089Z,100548.16
2018-09-20T19:11:26.817Z,100546.86
2018-09-20T19:13:55.313Z,100542.95
2018-09-20T19:16:23.768Z,100535.60
2018-09-20T19:18:52.185Z,100529.55
2018-09-20T19:21:20.666Z,100528.80
2018-09-20T19:23:50.013Z,100528.41
2018-09-20T19:26:18.522Z,100531.97
2018-09-20T19:28:48.773Z,100528.47
2018-09-20T19:31:17.323Z,100532.47
2018-09-20T19:33:45.835Z,100531.25
2018-09-20T19:36:14.304Z,100528.36
2018-09-20T19:38:42.897Z,100526.70
2018-09-20T19:41:11.324Z,100526.31
2018-09-20T19:43:41.684Z,100520.77
2018-09-20T19:46:10.097Z,100524.21
2018-09-20T19:48:38.518Z,100518.72
2018-09-20T19:51:07.157Z,100517.84
2018-09-20T19:53:35.587Z,100515.23
2018-09-20T19:56:04.028Z,100515.29
2018-09-20T19:58:32.507Z,100514.84
2018-09-20T20:01:00.934Z,100517.89
2018-09-20T20:03:29.365Z,100513.14
2018-09-20T20:05:57.845Z,100513.53
2018-09-20T20:08:26.321Z,100506.19
2018-09-20T20:10:54.895Z,100507.94
2018-09-20T20:13:23.312Z,100497.08
2018-09-20T20:15:51.744Z,100494.48
2018-09-20T20:18:21.210Z,100485.84
2018-09-20T20:20:49.653Z,100489.33
2018-09-20T20:23:18.080Z,100481.59
2018-09-20T20:25:46.586Z,100479.84
2018-09-20T20:28:16.247Z,100482.09
2018-09-20T20:30:45.577Z,100477.34
2018-09-20T20:33:14.032Z,100480.45
2018-09-20T20:35:43.063Z,100481.91
2018-09-20T20:38:11.468Z,100475.93
2018-09-20T20:40:39.973Z,100476.09
2018-09-20T20:43:08.398Z,100472.80
2018-09-20T20:45:36.823Z,100477.70
2018-09-20T20:48:05.257Z,100475.62
2018-09-20T20:50:33.685Z,100466.17
2018-09-20T20:53:02.148Z,100470.07
2018-09-20T20:55:30.650Z,100473.63
2018-09-20T20:57:59.077Z,100469.27
2018-09-20T21:00:27.502Z,100462.88
2018-09-20T21:02:55.880Z,100459.91
2018-09-20T21:05:24.333Z,100452.55
2018-09-20T21:07:52.729Z,100452.61
2018-09-20T21:10:21.219Z,100450.52
2018-09-20T21:12:49.589Z,100448.81
2018-09-20T21:15:18.005Z,100436.79
2018-09-20T21:17:46.417Z,100444.19
2018-09-20T21:20:14.829Z,100441.59
2018-09-20T21:22:43.286Z,100435.99
2018-09-20T21:25:11.692Z,100435.59
2018-09-20T21:27:40.149Z,100428.70
2018-09-20T21:30:08.568Z,100424.80
2018-09-20T21:32:37.016Z,100420.91
2018-09-20T21:35:05.496Z,100419.20
2018-09-20T21:37:33.908Z,100413.72
2018-09-20T21:40:02.511Z,100412.41
2018-09-20T21:42:30.887Z,100402.92
2018-09-20T21:44:59.286Z,100403.77
2018-09-20T21:47:27.732Z,100407.72
2018-09-20T21:49:56.143Z,100402.98
2018-09-20T21:52:24.526Z,100403.42
2018-09-20T21:54:52.929Z,100390.44
2018-09-20T21:57:21.296Z,100382.64
2018-09-20T21:59:49.700Z,100383.05
2018-09-20T22:02:23.411Z,100374.84
2018-09-20T22:04:51.855Z,100374.42
2018-09-20T22:07:20.249Z,100370.13
2018-09-20T22:09:48.696Z,100363.69
2018-09-20T22:12:17.126Z,100367.58
2018-09-20T22:14:45.556Z,100360.69
2018-09-20T22:17:13.986Z,100358.98
2018-09-20T22:19:42.405Z,100352.05
2018-09-20T22:22:10.899Z,100347.36
2018-09-20T22:24:39.357Z,100338.27
2018-09-20T22:27:07.828Z,100332.62
2018-09-20T22:29:36.208Z,100330.02
2018-09-20T22:32:04.601Z,100328.67
2018-09-20T22:34:33.009Z,100326.07
2018-09-20T22:37:01.424Z,100320.03
2018-09-20T22:39:29.851Z,100324.38
2018-09-20T22:41:58.289Z,100321.83
2018-09-20T22:44:26.654Z,100320.98
2018-09-20T22:46:55.072Z,100316.69
2018-09-20T22:49:23.477Z,100305.50
2018-09-20T22:51:51.848Z,100302.06
2018-09-20T22:54:20.229Z,100299.52
2018-09-20T22:56:48.629Z,100288.67
2018-09-20T22:59:17.147Z,100292.62
2018-09-20T23:01:45.551Z,100291.27
2018-09-20T23:04:13.943Z,100292.57
2018-09-20T23:06:42.396Z,100288.38
2018-09-20T23:09:11.427Z,100284.11
2018-09-20T23:11:40.324Z,100284.61
2018-09-20T23:14:08.768Z,100277.33
2018-09-20T23:16:37.186Z,100277.83
2018-09-20T23:19:05.736Z,100267.05
2018-09-20T23:21:34.115Z,100259.70
2018-09-20T23:24:02.553Z,100260.55
2018-09-20T23:26:30.939Z,100260.21
2018-09-20T23:28:59.334Z,100263.66
2018-09-20T23:31:27.740Z,100254.67
2018-09-20T23:33:56.163Z,100258.97
2018-09-20T23:36:24.762Z,100254.67
2018-09-20T23:38:53.157Z,100252.08
2018-09-20T23:41:21.590Z,100248.23
2018-09-20T23:43:50.025Z,100241.77
2018-09-20T23:46:18.469Z,100245.71
2018-09-20T23:48:46.968Z,100239.67
2018-09-20T23:51:15.449Z,100239.67
2018-09-20T23:53:43.848Z,100241.42
2018-09-20T23:56:12.297Z,100237.58
2018-09-20T23:58:40.757Z,100226.34
